Time;durP1;ratioP1;P1;durP2;ratioP2;P2;SDS_P1;SDS_P2;PMS_P1;PMS_P2;Temp;Humidity;BMP_temperature;BMP_pressure;BME280_temperature;BME280_humidity;BME280_pressure;Samples;Min_cycle;Max_cycle;Signal;HPM_P1;HPM_P2
2022/11/22 00:00:29;;;;;;;1.30;1.30;;;6.10;99.90;;;;;;477226;249;27606;-66
2022/11/22 00:02:30;;;;;;;1.00;1.00;;;6.20;99.90;;;;;;477290;249;28477;-70
2022/11/22 00:04:31;;;;;;;1.73;1.62;;;6.20;99.90;;;;;;477281;249;27517;-64
2022/11/22 00:06:32;;;;;;;1.25;1.25;;;6.20;99.90;;;;;;477275;249;27539;-65
2022/11/22 00:08:34;;;;;;;1.30;1.30;;;6.20;99.90;;;;;;477280;249;27596;-64
2022/11/22 00:10:35;;;;;;;1.40;1.30;;;6.20;99.90;;;;;;477244;249;27647;-66
2022/11/22 00:12:36;;;;;;;1.27;1.25;;;6.20;99.90;;;;;;477298;249;27689;-69
2022/11/22 00:14:37;;;;;;;1.30;1.20;;;6.20;99.90;;;;;;477261;249;27530;-66
2022/11/22 00:16:39;;;;;;;1.58;1.48;;;6.30;99.90;;;;;;477252;249;28058;-67
2022/11/22 00:18:40;;;;;;;1.30;1.30;;;6.30;99.90;;;;;;477226;249;27952;-66
2022/11/22 00:20:41;;;;;;;1.40;1.30;;;6.30;99.90;;;;;;477215;249;27972;-67
2022/11/22 00:22:42;;;;;;;1.30;1.30;;;6.30;99.90;;;;;;477275;249;27529;-69
2022/11/22 00:24:45;;;;;;;1.50;1.50;;;6.30;99.90;;;;;;477235;249;27518;-66
2022/11/22 00:26:45;;;;;;;1.58;1.48;;;6.30;99.90;;;;;;477223;249;27529;-67
2022/11/22 00:28:46;;;;;;;1.40;1.40;;;6.30;99.90;;;;;;477257;249;27556;-66
2022/11/22 00:30:47;;;;;;;1.50;1.40;;;6.30;99.90;;;;;;477251;249;27529;-66
2022/11/22 00:32:49;;;;;;;3.33;1.95;;;6.40;99.90;;;;;;477276;249;27770;-67
2022/11/22 00:34:50;;;;;;;1.20;1.20;;;6.40;99.90;;;;;;477262;249;27944;-64
2022/11/22 00:36:51;;;;;;;3.37;1.65;;;6.40;99.90;;;;;;477198;249;28005;-67
2022/11/22 00:38:52;;;;;;;3.65;1.52;;;6.40;99.90;;;;;;477253;249;27496;-65
2022/11/22 00:40:54;;;;;;;1.92;1.80;;;6.40;99.90;;;;;;477218;249;27600;-66
2022/11/22 00:42:56;;;;;;;1.90;1.80;;;6.40;99.90;;;;;;477236;249;27547;-67
2022/11/22 00:44:58;;;;;;;4.57;1.75;;;6.40;99.90;;;;;;477173;249;27651;-65
2022/11/22 00:46:59;;;;;;;4.87;2.22;;;6.40;99.90;;;;;;477288;249;27532;-67
2022/11/22 00:49:00;;;;;;;2.83;1.90;;;6.40;99.90;;;;;;477233;249;28005;-64
2022/11/22 00:51:01;;;;;;;4.90;2.05;;;6.40;99.90;;;;;;477238;249;27552;-65
2022/11/22 00:53:03;;;;;;;5.05;2.33;;;6.40;99.90;;;;;;477203;249;27568;-66
2022/11/22 00:55:04;;;;;;;8.00;3.50;;;6.40;99.90;;;;;;477226;249;27535;-65
2022/11/22 00:57:07;;;;;;;5.37;2.05;;;6.50;99.90;;;;;;477263;249;27691;-67
2022/11/22 00:59:08;;;;;;;2.78;2.03;;;6.50;99.90;;;;;;477212;249;27545;-65
2022/11/22 01:01:09;;;;;;;2.92;2.10;;;6.50;99.90;;;;;;477234;249;28033;-66
2022/11/22 01:03:11;;;;;;;5.90;2.30;;;6.50;99.90;;;;;;477250;249;28070;-66
2022/11/22 01:05:12;;;;;;;5.37;2.12;;;6.50;99.90;;;;;;477196;249;28051;-66
2022/11/22 01:07:13;;;;;;;5.35;2.12;;;6.50;99.90;;;;;;477197;249;27505;-64
2022/11/22 01:09:14;;;;;;;2.95;1.87;;;6.50;99.90;;;;;;477209;249;27598;-66
2022/11/22 01:11:15;;;;;;;7.20;2.50;;;6.50;99.90;;;;;;477256;247;27580;-65
2022/11/22 01:13:17;;;;;;;4.53;2.10;;;6.50;99.90;;;;;;477249;249;27548;-64
2022/11/22 01:15:18;;;;;;;5.72;2.20;;;6.50;99.90;;;;;;477267;249;27534;-64
2022/11/22 01:17:19;;;;;;;4.93;1.95;;;6.50;99.90;;;;;;477270;249;27507;-66
2022/11/22 01:19:21;;;;;;;3.28;2.17;;;6.50;99.90;;;;;;477243;249;28076;-65
2022/11/22 01:21:22;;;;;;;3.28;1.92;;;6.50;99.90;;;;;;477267;249;28119;-68
2022/11/22 01:23:23;;;;;;;3.97;2.10;;;6.50;99.90;;;;;;477245;249;27511;-64
2022/11/22 01:25:24;;;;;;;11.38;2.90;;;6.50;99.90;;;;;;477252;249;27648;-65
2022/11/22 01:27:26;;;;;;;6.15;2.28;;;6.50;99.90;;;;;;477222;249;27589;-64
2022/11/22 01:29:27;;;;;;;4.65;2.40;;;6.50;99.90;;;;;;477224;249;27559;-65
2022/11/22 01:31:29;;;;;;;3.25;2.30;;;6.50;99.90;;;;;;477276;249;27648;-69
2022/11/22 01:33:29;;;;;;;7.15;2.60;;;6.50;99.90;;;;;;477243;249;27495;-66
2022/11/22 01:35:31;;;;;;;6.75;2.33;;;6.50;99.90;;;;;;477274;249;28093;-66
2022/11/22 01:37:32;;;;;;;9.63;2.92;;;6.50;99.90;;;;;;477254;249;28055;-64
2022/11/22 01:39:33;;;;;;;6.15;2.72;;;6.50;99.90;;;;;;477244;249;27545;-66
2022/11/22 01:41:34;;;;;;;5.68;2.40;;;6.50;99.90;;;;;;477270;249;27570;-69
2022/11/22 01:43:36;;;;;;;10.82;2.90;;;6.50;99.90;;;;;;477247;249;27639;-66
2022/11/22 01:45:37;;;;;;;10.38;2.45;;;6.50;99.90;;;;;;477217;249;27657;-67
2022/11/22 01:47:38;;;;;;;6.70;2.65;;;6.50;99.90;;;;;;477199;249;27509;-66
2022/11/22 01:49:39;;;;;;;6.53;2.75;;;6.50;99.90;;;;;;477209;249;27671;-64
2022/11/22 01:51:41;;;;;;;10.05;2.92;;;6.50;99.90;;;;;;477251;249;28012;-69
2022/11/22 01:53:42;;;;;;;8.68;2.30;;;6.50;99.90;;;;;;477229;249;27961;-68
2022/11/22 01:55:43;;;;;;;6.90;2.80;;;6.50;99.90;;;;;;477260;249;27544;-67
2022/11/22 01:57:44;;;;;;;7.68;3.17;;;6.50;99.90;;;;;;477228;249;27504;-66
2022/11/22 01:59:46;;;;;;;9.30;2.65;;;6.50;99.90;;;;;;477243;249;27508;-67
2022/11/22 02:01:47;;;;;;;5.75;2.30;;;6.50;99.90;;;;;;477251;249;27572;-69
2022/11/22 02:03:48;;;;;;;6.53;2.50;;;6.50;99.90;;;;;;477153;249;27515;-66
2022/11/22 02:05:49;;;;;;;8.77;2.40;;;6.50;99.90;;;;;;477210;249;27551;-64
2022/11/22 02:07:51;;;;;;;6.03;2.55;;;6.50;99.90;;;;;;477207;249;27910;-64
2022/11/22 02:09:52;;;;;;;5.45;2.65;;;6.50;99.90;;;;;;477266;249;28029;-64
2022/11/22 02:11:53;;;;;;;11.68;3.58;;;6.50;99.90;;;;;;477250;249;28034;-66
2022/11/22 02:13:54;;;;;;;10.35;2.90;;;6.50;99.90;;;;;;477232;249;27511;-66
2022/11/22 02:15:56;;;;;;;5.85;2.40;;;6.50;99.90;;;;;;477220;249;27672;-65
2022/11/22 02:17:57;;;;;;;9.88;3.00;;;6.50;99.90;;;;;;477204;249;27725;-66
2022/11/22 02:19:58;;;;;;;4.68;2.62;;;6.50;99.90;;;;;;477251;249;27532;-66
2022/11/22 02:21:59;;;;;;;11.10;3.10;;;6.40;99.90;;;;;;477262;249;27639;-66
2022/11/22 02:24:01;;;;;;;11.20;4.00;;;6.40;99.90;;;;;;477232;249;27935;-64
2022/11/22 02:26:02;;;;;;;9.07;2.55;;;6.40;99.90;;;;;;477225;249;28087;-66
2022/11/22 02:28:03;;;;;;;14.05;2.55;;;6.40;99.90;;;;;;477222;249;27674;-66
2022/11/22 02:30:04;;;;;;;11.40;3.30;;;6.40;99.90;;;;;;477251;249;27476;-65
2022/11/22 02:32:06;;;;;;;13.25;3.05;;;6.40;99.90;;;;;;477234;249;27598;-66
2022/11/22 02:34:07;;;;;;;9.60;2.65;;;6.40;99.90;;;;;;477230;249;27550;-64
2022/11/22 02:36:08;;;;;;;5.93;2.80;;;6.40;99.90;;;;;;477175;249;27625;-66
2022/11/22 02:38:09;;;;;;;3.25;2.00;;;6.30;99.90;;;;;;477043;249;29139;-66
2022/11/22 02:40:12;;;;;;;8.38;2.83;;;6.30;99.90;;;;;;477074;249;27941;-65
2022/11/22 02:42:12;;;;;;;10.32;3.10;;;6.40;99.90;;;;;;476556;249;28297;-68
2022/11/22 02:44:13;;;;;;;5.87;2.58;;;6.40;99.90;;;;;;475785;249;27447;-66
2022/11/22 02:46:20;;;;;;;7.07;2.78;;;6.30;99.90;;;;;;476977;249;27651;-66
2022/11/22 02:48:19;;;;;;;6.37;2.55;;;6.30;99.90;;;;;;476997;249;27647;-67
2022/11/22 02:50:20;;;;;;;7.25;2.25;;;6.30;99.90;;;;;;477265;249;27566;-70
2022/11/22 02:52:21;;;;;;;6.60;2.97;;;6.30;99.90;;;;;;477261;249;27998;-66
2022/11/22 02:54:22;;;;;;;12.18;2.92;;;6.30;99.90;;;;;;477263;249;27532;-67
2022/11/22 02:56:24;;;;;;;8.90;2.20;;;6.30;99.90;;;;;;477228;247;28033;-66
2022/11/22 02:58:25;;;;;;;9.32;2.72;;;6.30;99.90;;;;;;477218;249;28102;-66
2022/11/22 03:00:26;;;;;;;7.05;2.90;;;6.30;99.90;;;;;;477295;249;28006;-67
2022/11/22 03:02:27;;;;;;;8.85;2.85;;;6.30;99.90;;;;;;477274;249;27551;-64
2022/11/22 03:04:29;;;;;;;9.55;2.40;;;6.30;99.90;;;;;;477422;249;27505;-66
2022/11/22 03:06:30;;;;;;;7.32;2.28;;;6.20;99.90;;;;;;477263;249;27566;-68
2022/11/22 03:08:32;;;;;;;5.90;2.35;;;6.30;99.90;;;;;;477340;249;27585;-66
2022/11/22 03:10:32;;;;;;;10.80;2.60;;;6.20;99.90;;;;;;477301;249;28047;-69
2022/11/22 03:12:34;;;;;;;8.77;2.35;;;6.20;99.90;;;;;;477270;249;28044;-66
2022/11/22 03:14:35;;;;;;;8.63;2.70;;;6.10;99.90;;;;;;477255;249;27543;-67
2022/11/22 03:16:36;;;;;;;7.80;2.50;;;6.20;99.90;;;;;;477246;249;27547;-66
2022/11/22 03:18:37;;;;;;;5.40;2.30;;;6.20;99.90;;;;;;477227;249;27635;-67
2022/11/22 03:20:39;;;;;;;8.43;2.47;;;6.20;99.90;;;;;;477278;249;27642;-69
2022/11/22 03:22:40;;;;;;;10.73;2.80;;;6.10;99.90;;;;;;477263;249;27501;-66
2022/11/22 03:24:41;;;;;;;13.45;3.50;;;6.10;99.90;;;;;;477252;249;27621;-67
2022/11/22 03:26:43;;;;;;;10.57;2.58;;;6.10;99.90;;;;;;477222;249;27967;-65
2022/11/22 03:28:44;;;;;;;16.37;3.42;;;6.10;99.90;;;;;;477237;249;28009;-66
2022/11/22 03:30:45;;;;;;;13.70;3.10;;;6.00;99.90;;;;;;477271;249;27665;-68
2022/11/22 03:32:46;;;;;;;11.35;3.35;;;6.00;99.90;;;;;;477278;249;27556;-66
2022/11/22 03:34:48;;;;;;;17.48;3.42;;;5.90;99.90;;;;;;477243;249;27553;-67
2022/11/22 03:36:49;;;;;;;9.18;2.75;;;5.90;99.90;;;;;;477218;249;27523;-66
2022/11/22 03:38:50;;;;;;;11.95;2.83;;;5.80;99.90;;;;;;477220;249;27559;-66
2022/11/22 03:40:51;;;;;;;8.27;3.17;;;5.70;99.90;;;;;;477263;249;28490;-68
2022/11/22 03:42:53;;;;;;;16.00;2.65;;;5.70;99.90;;;;;;477254;249;28062;-65
2022/11/22 03:44:54;;;;;;;6.47;2.50;;;5.60;99.90;;;;;;477220;249;27644;-67
2022/11/22 03:46:55;;;;;;;6.78;2.30;;;5.60;99.90;;;;;;477210;249;27528;-66
2022/11/22 03:48:56;;;;;;;7.30;2.60;;;5.60;99.90;;;;;;477214;249;27667;-66
2022/11/22 03:50:58;;;;;;;4.18;2.20;;;5.60;99.90;;;;;;477241;249;27523;-66
2022/11/22 03:52:59;;;;;;;8.75;2.65;;;5.50;99.90;;;;;;477241;249;27619;-67
2022/11/22 03:55:00;;;;;;;8.80;2.40;;;5.50;99.90;;;;;;477268;249;27525;-67
2022/11/22 03:57:01;;;;;;;8.18;2.20;;;5.50;99.90;;;;;;477242;249;27583;-63
2022/11/22 03:59:03;;;;;;;6.37;2.40;;;5.50;99.90;;;;;;477243;249;27630;-64
2022/11/22 04:01:04;;;;;;;8.35;2.83;;;5.60;99.90;;;;;;477233;249;28799;-64
2022/11/22 04:03:05;;;;;;;5.72;2.50;;;5.60;99.90;;;;;;477129;247;27956;-66
2022/11/22 04:05:06;;;;;;;6.20;2.50;;;5.60;99.90;;;;;;477254;249;27590;-67
2022/11/22 04:07:08;;;;;;;5.60;1.98;;;5.50;99.90;;;;;;477222;249;27504;-66
2022/11/22 04:09:09;;;;;;;8.52;2.65;;;5.50;99.90;;;;;;477229;249;27602;-66
2022/11/22 04:11:11;;;;;;;6.57;2.45;;;5.50;99.90;;;;;;477223;249;27533;-63
2022/11/22 04:13:11;;;;;;;6.80;2.30;;;5.60;99.90;;;;;;477237;249;27504;-67
2022/11/22 04:15:13;;;;;;;6.53;3.12;;;5.60;99.90;;;;;;477236;249;27636;-67
2022/11/22 04:17:39;;;;;;;6.35;1.90;;;5.60;99.90;;;;;;477253;249;27497;-66
2022/11/22 04:19:15;;;;;;;6.72;2.55;;;5.60;99.90;;;;;;475658;249;27536;-66
2022/11/22 04:21:35;;;;;;;8.07;3.12;;;5.60;99.90;;;;;;477285;249;28501;-67
2022/11/22 04:23:36;;;;;;;10.55;2.55;;;5.60;99.90;;;;;;477272;249;27601;-64
2022/11/22 04:25:37;;;;;;;5.97;2.22;;;5.60;99.90;;;;;;477252;249;27527;-65
2022/11/22 04:27:39;;;;;;;11.30;2.33;;;5.60;99.90;;;;;;477239;249;27548;-64
2022/11/22 04:29:40;;;;;;;7.78;2.55;;;5.60;99.90;;;;;;477250;249;27524;-66
2022/11/22 04:34:01;;;;;;;6.95;2.50;;;5.60;99.90;;;;;;477242;249;27507;-64
2022/11/22 04:36:02;;;;;;;4.12;2.30;;;5.60;99.90;;;;;;477191;249;27536;-66
2022/11/22 04:38:03;;;;;;;8.85;2.58;;;5.60;99.90;;;;;;477285;249;27556;-66
2022/11/22 04:40:04;;;;;;;8.15;2.20;;;5.60;99.90;;;;;;477260;249;27516;-64
2022/11/22 04:44:41;;;;;;;7.30;2.47;;;5.60;99.90;;;;;;477244;249;27552;-65
2022/11/22 04:46:42;;;;;;;3.87;2.00;;;5.60;99.90;;;;;;477234;249;27584;-65
2022/11/22 04:48:43;;;;;;;9.60;2.80;;;5.60;99.90;;;;;;477244;249;27551;-64
2022/11/22 04:53:04;;;;;;;8.27;2.12;;;5.60;99.90;;;;;;477253;249;27558;-65
2022/11/22 04:55:05;;;;;;;6.30;2.22;;;5.50;99.90;;;;;;477258;249;27573;-64
2022/11/22 04:57:06;;;;;;;5.07;2.90;;;5.60;99.90;;;;;;477206;249;28109;-69
2022/11/22 04:59:08;;;;;;;5.80;2.92;;;5.60;99.90;;;;;;477267;249;28055;-69
2022/11/22 05:01:09;;;;;;;7.18;2.78;;;5.60;99.90;;;;;;477248;249;27976;-64
2022/11/22 05:03:10;;;;;;;9.27;3.40;;;5.50;99.90;;;;;;477243;249;27552;-65
2022/11/22 05:05:11;;;;;;;9.18;3.90;;;5.50;99.90;;;;;;477230;249;27572;-64
2022/11/22 05:07:13;;;;;;;7.20;3.17;;;5.50;99.90;;;;;;477204;249;27532;-65
2022/11/22 05:09:15;;;;;;;5.43;2.50;;;5.50;99.90;;;;;;477272;249;27525;-69
2022/11/22 05:11:17;;;;;;;8.50;2.50;;;5.50;99.90;;;;;;477245;249;27578;-65
2022/11/22 05:13:18;;;;;;;6.55;2.50;;;5.50;99.90;;;;;;477223;249;27528;-64
2022/11/22 05:15:19;;;;;;;3.42;2.45;;;5.50;99.90;;;;;;477224;249;28020;-64
2022/11/22 05:17:20;;;;;;;5.80;2.67;;;5.50;99.90;;;;;;477244;249;28096;-67
2022/11/22 05:19:21;;;;;;;5.60;2.67;;;5.50;99.90;;;;;;477261;249;27979;-64
2022/11/22 05:21:23;;;;;;;8.73;2.70;;;5.50;99.90;;;;;;477248;249;27638;-65
2022/11/22 05:25:43;;;;;;;11.07;4.47;;;5.50;99.90;;;;;;477244;249;27603;-64
2022/11/22 05:27:45;;;;;;;7.37;3.00;;;5.50;99.90;;;;;;477220;249;27656;-66
2022/11/22 05:29:46;;;;;;;6.53;3.05;;;5.50;99.90;;;;;;477235;249;27599;-66
2022/11/22 05:31:47;;;;;;;8.13;3.30;;;5.50;99.90;;;;;;477223;249;27697;-66
2022/11/22 05:33:48;;;;;;;8.23;2.90;;;5.40;99.90;;;;;;477217;249;27884;-64
2022/11/22 05:35:50;;;;;;;6.82;2.87;;;5.40;99.90;;;;;;477249;249;27623;-64
2022/11/22 05:37:51;;;;;;;9.82;3.20;;;5.40;99.90;;;;;;477214;249;28152;-67
2022/11/22 05:39:52;;;;;;;7.12;2.72;;;5.40;99.90;;;;;;477234;249;28048;-66
2022/11/22 05:41:56;;;;;;;6.57;2.70;;;5.40;99.90;;;;;;477247;249;28080;-66
2022/11/22 05:43:58;;;;;;;7.32;2.80;;;5.40;99.90;;;;;;477227;249;27536;-66
2022/11/22 05:45:59;;;;;;;5.90;2.33;;;5.40;99.90;;;;;;477242;249;27571;-69
2022/11/22 05:48:00;;;;;;;8.25;2.70;;;5.30;99.90;;;;;;477201;249;27621;-66
2022/11/22 05:50:01;;;;;;;9.75;2.50;;;5.30;99.90;;;;;;477240;249;28080;-64
2022/11/22 05:52:03;;;;;;;7.70;2.58;;;5.30;99.90;;;;;;477236;249;27951;-64
2022/11/22 05:54:04;;;;;;;5.90;2.78;;;5.30;99.90;;;;;;477199;249;28120;-66
2022/11/22 05:56:05;;;;;;;4.85;2.67;;;5.30;99.90;;;;;;477261;249;27568;-66
2022/11/22 05:58:06;;;;;;;3.20;2.53;;;5.30;99.90;;;;;;477256;249;27492;-66
2022/11/22 06:00:08;;;;;;;9.73;2.60;;;5.30;99.90;;;;;;477221;247;27582;-68
2022/11/22 06:02:09;;;;;;;3.67;2.62;;;5.30;99.90;;;;;;477233;249;27604;-64
2022/11/22 06:04:10;;;;;;;4.85;2.53;;;5.30;99.90;;;;;;477230;249;27543;-64
2022/11/22 06:06:11;;;;;;;4.60;2.60;;;5.30;99.90;;;;;;477233;249;27912;-68
2022/11/22 06:08:13;;;;;;;5.75;2.90;;;5.40;99.90;;;;;;477250;249;27543;-66
2022/11/22 06:10:14;;;;;;;5.32;3.08;;;5.30;99.90;;;;;;477271;249;28058;-67
2022/11/22 06:12:15;;;;;;;6.45;3.25;;;5.30;99.90;;;;;;477253;249;27944;-64
2022/11/22 06:14:16;;;;;;;13.43;3.05;;;5.30;99.90;;;;;;477228;249;28020;-66
2022/11/22 06:16:18;;;;;;;5.87;3.28;;;5.30;99.90;;;;;;477239;249;27684;-67
2022/11/22 06:18:19;;;;;;;6.65;3.25;;;5.30;99.90;;;;;;477246;249;27554;-64
2022/11/22 06:20:20;;;;;;;4.47;2.72;;;5.30;99.90;;;;;;477231;249;27544;-67
2022/11/22 06:22:21;;;;;;;6.20;2.70;;;5.30;99.90;;;;;;477234;249;27626;-65
2022/11/22 06:24:23;;;;;;;5.75;2.87;;;5.30;99.90;;;;;;477215;249;27532;-65
2022/11/22 06:26:24;;;;;;;4.90;2.83;;;5.30;99.90;;;;;;477199;249;27551;-69
2022/11/22 06:28:25;;;;;;;6.22;2.83;;;5.30;99.90;;;;;;477253;249;27504;-65
2022/11/22 06:30:27;;;;;;;9.68;3.05;;;5.30;99.90;;;;;;477231;249;27539;-67
2022/11/22 06:32:28;;;;;;;7.55;2.50;;;5.30;99.90;;;;;;477219;249;28036;-66
2022/11/22 06:34:29;;;;;;;3.00;2.62;;;5.30;99.90;;;;;;477179;249;28009;-66
2022/11/22 06:36:30;;;;;;;4.47;2.47;;;5.30;99.90;;;;;;477246;249;28226;-67
2022/11/22 06:38:32;;;;;;;5.43;2.95;;;5.30;99.90;;;;;;477236;249;27501;-64
2022/11/22 06:40:33;;;;;;;4.15;2.50;;;5.20;99.90;;;;;;477226;249;27531;-65
2022/11/22 06:42:34;;;;;;;11.12;2.95;;;5.20;99.90;;;;;;477188;249;27493;-64
2022/11/22 06:44:35;;;;;;;4.97;2.95;;;5.10;99.90;;;;;;477214;249;27534;-65
2022/11/22 06:46:37;;;;;;;5.37;2.42;;;5.10;99.90;;;;;;477251;249;27666;-67
2022/11/22 06:48:38;;;;;;;11.70;2.90;;;5.10;99.90;;;;;;477224;249;27679;-64
2022/11/22 06:50:39;;;;;;;6.10;2.80;;;5.20;99.90;;;;;;477229;249;27543;-65
2022/11/22 06:52:40;;;;;;;3.87;2.83;;;5.20;99.90;;;;;;477201;249;27504;-65
2022/11/22 06:54:42;;;;;;;7.15;2.72;;;5.20;99.90;;;;;;477181;249;27535;-65
2022/11/22 06:56:43;;;;;;;2.87;2.47;;;5.20;99.90;;;;;;477219;249;27633;-69
2022/11/22 06:58:44;;;;;;;5.20;2.50;;;5.20;99.90;;;;;;477224;249;27504;-66
2022/11/22 07:00:45;;;;;;;7.53;2.80;;;5.20;99.90;;;;;;477231;249;27625;-65
2022/11/22 07:02:47;;;;;;;3.45;2.62;;;5.20;99.90;;;;;;477195;249;27512;-64
2022/11/22 07:04:48;;;;;;;2.80;2.30;;;5.20;99.90;;;;;;477216;249;27553;-64
2022/11/22 07:06:49;;;;;;;4.70;2.47;;;5.20;99.90;;;;;;477246;249;27587;-66
2022/11/22 07:08:51;;;;;;;4.35;2.58;;;5.10;99.90;;;;;;477226;249;27510;-64
2022/11/22 07:10:52;;;;;;;2.72;2.45;;;5.10;99.90;;;;;;477207;249;27528;-64
2022/11/22 07:12:53;;;;;;;6.28;2.60;;;5.10;99.90;;;;;;476850;249;27580;-64
2022/11/22 07:14:54;;;;;;;3.65;2.70;;;5.00;99.90;;;;;;477241;249;27491;-65
2022/11/22 07:16:56;;;;;;;4.97;2.33;;;5.00;99.90;;;;;;477202;249;27560;-65
2022/11/22 07:18:57;;;;;;;4.20;2.60;;;4.90;99.90;;;;;;477226;249;27557;-64
2022/11/22 07:20:58;;;;;;;7.03;2.90;;;4.90;99.90;;;;;;477198;249;28080;-65
2022/11/22 07:22:59;;;;;;;5.95;2.90;;;4.90;99.90;;;;;;477216;249;29083;-64
2022/11/22 07:25:01;;;;;;;7.53;2.40;;;4.90;99.90;;;;;;477220;249;27946;-64
2022/11/22 07:27:02;;;;;;;7.97;2.60;;;4.90;99.90;;;;;;477212;249;29142;-67
2022/11/22 07:29:03;;;;;;;5.25;2.60;;;5.00;99.90;;;;;;477215;249;27501;-64
2022/11/22 07:31:04;;;;;;;4.50;3.05;;;5.00;99.90;;;;;;477203;249;27632;-64
2022/11/22 07:33:06;;;;;;;6.85;3.87;;;5.00;99.90;;;;;;477220;249;27563;-64
2022/11/22 07:35:07;;;;;;;7.00;3.08;;;5.00;99.90;;;;;;477249;249;27578;-65
2022/11/22 07:37:08;;;;;;;11.02;3.60;;;5.10;99.90;;;;;;477372;249;27572;-68
2022/11/22 07:39:09;;;;;;;7.68;3.20;;;5.10;99.90;;;;;;477323;249;27589;-66
2022/11/22 07:41:11;;;;;;;5.53;3.10;;;5.10;99.90;;;;;;477185;249;27576;-66
2022/11/22 07:43:12;;;;;;;3.97;3.17;;;5.20;99.90;;;;;;477232;249;28020;-64
2022/11/22 07:45:13;;;;;;;4.37;3.10;;;5.20;99.90;;;;;;477269;249;27949;-64
2022/11/22 07:47:14;;;;;;;4.43;2.78;;;5.20;99.90;;;;;;477266;249;28061;-65
2022/11/22 07:49:16;;;;;;;7.40;3.67;;;5.20;99.90;;;;;;477230;249;27952;-64
2022/11/22 07:51:17;;;;;;;6.20;2.90;;;5.20;99.90;;;;;;477255;249;29189;-64
2022/11/22 07:53:18;;;;;;;4.93;3.05;;;5.20;99.90;;;;;;477241;249;27593;-64
2022/11/22 07:55:19;;;;;;;9.50;3.10;;;5.20;99.90;;;;;;477244;249;27540;-65
2022/11/22 07:57:21;;;;;;;7.87;3.10;;;5.20;99.90;;;;;;477246;249;27534;-67
2022/11/22 07:59:22;;;;;;;4.93;2.83;;;5.30;99.90;;;;;;477219;249;27486;-66
2022/11/22 08:01:23;;;;;;;2.97;2.70;;;5.30;99.90;;;;;;477227;249;27536;-65
2022/11/22 08:03:24;;;;;;;11.30;3.30;;;5.30;99.90;;;;;;477244;249;27627;-64
2022/11/22 08:05:26;;;;;;;2.95;2.70;;;5.30;99.90;;;;;;477269;249;27487;-64
2022/11/22 08:07:27;;;;;;;4.70;2.40;;;5.30;99.90;;;;;;477258;249;27686;-67
2022/11/22 08:09:28;;;;;;;5.60;2.70;;;5.30;99.90;;;;;;477198;249;28088;-64
2022/11/22 08:11:29;;;;;;;3.15;1.95;;;5.30;99.90;;;;;;477233;249;27536;-64
2022/11/22 08:13:31;;;;;;;4.97;2.03;;;5.30;99.90;;;;;;477272;249;28103;-67
2022/11/22 08:15:32;;;;;;;7.03;2.08;;;5.40;99.90;;;;;;477236;249;27608;-64
2022/11/22 08:17:33;;;;;;;5.03;2.42;;;5.40;99.90;;;;;;477243;249;27533;-64
2022/11/22 08:19:34;;;;;;;2.40;2.20;;;5.40;99.90;;;;;;477231;249;27591;-64
2022/11/22 08:21:36;;;;;;;3.25;2.10;;;5.40;99.90;;;;;;477210;249;27545;-66
2022/11/22 08:23:37;;;;;;;8.43;2.53;;;5.40;99.90;;;;;;477251;249;27552;-69
2022/11/22 08:25:38;;;;;;;1.90;1.80;;;5.40;99.90;;;;;;477237;249;27619;-66
2022/11/22 08:27:40;;;;;;;2.55;1.62;;;5.40;99.90;;;;;;477235;249;27562;-67
2022/11/22 08:29:41;;;;;;;3.72;2.53;;;5.40;99.90;;;;;;477204;249;28040;-66
2022/11/22 08:31:42;;;;;;;7.10;2.17;;;5.40;99.90;;;;;;477233;249;28141;-66
2022/11/22 08:33:43;;;;;;;6.75;2.22;;;5.40;99.90;;;;;;477291;249;28018;-69
2022/11/22 08:35:44;;;;;;;3.03;1.83;;;5.40;99.90;;;;;;477252;249;27521;-67
2022/11/22 08:37:46;;;;;;;2.90;2.10;;;5.40;99.90;;;;;;477241;249;27571;-66
2022/11/22 08:39:47;;;;;;;4.37;2.00;;;5.40;99.90;;;;;;477213;249;27581;-66
2022/11/22 08:41:48;;;;;;;7.47;1.90;;;5.30;99.90;;;;;;477259;249;27540;-64
2022/11/22 08:43:49;;;;;;;5.57;2.50;;;5.30;99.90;;;;;;477252;249;28116;-69
2022/11/22 08:45:51;;;;;;;3.30;2.10;;;5.30;99.90;;;;;;477232;249;27983;-66
2022/11/22 08:47:52;;;;;;;5.03;2.08;;;5.30;99.90;;;;;;477237;249;27988;-64
2022/11/22 08:49:53;;;;;;;7.18;2.67;;;5.30;99.90;;;;;;477238;249;27518;-64
2022/11/22 08:51:54;;;;;;;5.70;2.62;;;5.40;99.90;;;;;;477240;249;27533;-63
2022/11/22 08:53:56;;;;;;;6.22;2.85;;;5.40;99.90;;;;;;477245;249;27532;-67
2022/11/22 08:55:57;;;;;;;5.55;3.12;;;5.50;99.90;;;;;;477256;249;27510;-64
2022/11/22 08:57:58;;;;;;;5.78;2.70;;;5.50;99.90;;;;;;477222;249;27575;-65
2022/11/22 08:59:59;;;;;;;5.72;2.70;;;5.50;99.90;;;;;;477238;249;27587;-64
2022/11/22 09:02:01;;;;;;;6.97;2.55;;;5.50;99.90;;;;;;477223;249;27661;-64
2022/11/22 09:04:02;;;;;;;5.12;2.80;;;5.50;99.90;;;;;;477250;249;27578;-69
2022/11/22 09:06:03;;;;;;;5.70;2.28;;;5.50;99.90;;;;;;477250;249;28014;-64
2022/11/22 09:08:04;;;;;;;4.45;2.70;;;5.50;99.90;;;;;;477237;249;28091;-67
2022/11/22 09:10:07;;;;;;;11.30;3.33;;;5.50;99.90;;;;;;477249;249;27513;-66
2022/11/22 09:12:07;;;;;;;6.22;2.55;;;5.50;99.90;;;;;;477214;249;27717;-65
2022/11/22 09:14:08;;;;;;;8.10;2.50;;;5.50;99.90;;;;;;477283;249;27528;-67
2022/11/22 09:16:09;;;;;;;6.55;2.50;;;5.60;99.90;;;;;;477189;249;27584;-66
2022/11/22 09:18:11;;;;;;;3.50;2.10;;;5.70;99.90;;;;;;477259;249;27540;-65
2022/11/22 09:20:12;;;;;;;6.03;2.28;;;5.70;99.90;;;;;;477265;249;27524;-64
2022/11/22 09:22:13;;;;;;;10.35;2.47;;;5.70;99.90;;;;;;477241;249;27513;-64
2022/11/22 09:24:15;;;;;;;9.05;2.53;;;5.70;99.90;;;;;;477301;249;28036;-66
2022/11/22 09:26:16;;;;;;;3.20;2.50;;;5.70;99.90;;;;;;477232;249;27949;-64
2022/11/22 09:28:17;;;;;;;7.68;2.45;;;5.60;99.90;;;;;;477225;249;27638;-65
2022/11/22 09:30:20;;;;;;;9.20;2.30;;;5.70;99.90;;;;;;477189;249;27541;-65
2022/11/22 09:32:20;;;;;;;6.90;2.53;;;5.70;99.90;;;;;;477147;249;27507;-66
2022/11/22 09:34:21;;;;;;;4.72;2.00;;;5.70;99.90;;;;;;477254;249;27620;-67
2022/11/22 09:36:22;;;;;;;5.00;2.30;;;5.70;99.90;;;;;;477238;249;27607;-64
2022/11/22 09:38:23;;;;;;;5.15;2.47;;;5.80;99.90;;;;;;477203;249;27664;-66
2022/11/22 09:40:25;;;;;;;4.20;1.95;;;5.80;99.90;;;;;;477220;249;27571;-67
2022/11/22 09:42:26;;;;;;;6.85;2.15;;;5.70;99.90;;;;;;477241;249;27947;-67
2022/11/22 09:44:27;;;;;;;6.62;2.20;;;5.80;99.90;;;;;;477257;249;28046;-67
2022/11/22 09:46:28;;;;;;;7.28;2.30;;;5.80;99.90;;;;;;477220;249;27524;-63
2022/11/22 09:48:30;;;;;;;3.42;1.90;;;5.80;99.90;;;;;;477216;249;27528;-64
2022/11/22 09:50:31;;;;;;;7.47;2.22;;;5.80;99.90;;;;;;477237;249;27582;-66
2022/11/22 09:52:32;;;;;;;8.55;2.20;;;5.80;99.90;;;;;;477229;249;27521;-66
2022/11/22 09:54:34;;;;;;;4.05;2.15;;;5.80;99.90;;;;;;477259;249;27539;-67
2022/11/22 09:56:35;;;;;;;3.08;2.00;;;5.80;99.90;;;;;;477267;249;27505;-65
2022/11/22 09:58:36;;;;;;;4.40;2.40;;;5.80;99.90;;;;;;477265;249;27540;-65
2022/11/22 10:00:37;;;;;;;5.18;2.42;;;5.80;99.90;;;;;;477278;249;27969;-66
2022/11/22 10:02:38;;;;;;;4.47;2.30;;;5.80;99.90;;;;;;477243;249;28030;-64
2022/11/22 10:04:40;;;;;;;5.37;2.40;;;5.80;99.90;;;;;;477275;249;27635;-67
2022/11/22 10:06:41;;;;;;;5.47;2.75;;;5.80;99.90;;;;;;477233;249;27511;-67
2022/11/22 10:08:42;;;;;;;7.35;2.80;;;5.90;99.90;;;;;;477219;249;27616;-64
2022/11/22 10:10:43;;;;;;;2.17;2.08;;;5.90;99.90;;;;;;477257;249;27583;-64
2022/11/22 10:12:45;;;;;;;8.55;2.50;;;6.00;99.90;;;;;;477262;249;27532;-65
2022/11/22 10:14:46;;;;;;;7.05;2.65;;;5.90;99.90;;;;;;477237;249;27529;-66
2022/11/22 10:16:47;;;;;;;4.65;2.70;;;6.00;99.90;;;;;;477234;249;27946;-65
2022/11/22 10:18:48;;;;;;;6.57;2.47;;;6.00;99.90;;;;;;477231;249;28207;-65
2022/11/22 10:20:50;;;;;;;4.18;2.30;;;6.10;99.90;;;;;;477216;249;27495;-64
2022/11/22 10:22:51;;;;;;;2.80;2.30;;;6.30;99.90;;;;;;477249;249;27494;-64
2022/11/22 10:24:52;;;;;;;2.62;2.20;;;6.30;99.90;;;;;;477268;247;27619;-69
2022/11/22 10:26:53;;;;;;;6.15;2.25;;;6.40;99.90;;;;;;477251;249;27510;-65
2022/11/22 10:28:55;;;;;;;8.48;1.90;;;6.40;99.90;;;;;;477205;249;27541;-67
2022/11/22 10:30:56;;;;;;;4.05;2.30;;;6.40;99.90;;;;;;477223;249;28134;-65
2022/11/22 10:32:57;;;;;;;2.40;2.08;;;6.40;99.90;;;;;;477278;249;28065;-66
2022/11/22 10:34:58;;;;;;;5.87;1.90;;;6.40;99.90;;;;;;477268;247;27576;-68
2022/11/22 10:37:00;;;;;;;6.18;2.53;;;6.40;99.90;;;;;;477258;249;27669;-66
2022/11/22 10:39:01;;;;;;;5.18;1.92;;;6.30;99.90;;;;;;477287;249;27563;-66
2022/11/22 10:41:02;;;;;;;7.53;2.00;;;6.40;99.90;;;;;;477267;249;27496;-65
2022/11/22 10:43:04;;;;;;;4.05;1.73;;;6.50;99.90;;;;;;477290;249;27612;-66
2022/11/22 10:45:05;;;;;;;3.35;1.75;;;6.50;99.90;;;;;;477255;249;28019;-68
2022/11/22 10:47:06;;;;;;;5.82;2.10;;;6.60;99.90;;;;;;477252;249;28056;-65